Time;durP1;ratioP1;P1;durP2;ratioP2;P2;SDS_P1;SDS_P2;PMS_P1;PMS_P2;Temp;Humidity;BMP_temperature;BMP_pressure;BME280_temperature;BME280_humidity;BME280_pressure;Samples;Min_cycle;Max_cycle;Signal;HPM_P1;HPM_P2
2023/02/16 00:00:48;;;;;;;12.60;9.40;;;3.60;99.90;;;-141.84;71.50;18954.25;5032475;28;20186;-59
2023/02/16 00:03:20;;;;;;;10.57;8.77;;;3.60;99.90;;;-141.84;71.63;18980.66;5032747;28;20676;-59
2023/02/16 00:05:49;;;;;;;13.17;9.83;;;3.60;99.90;;;-141.84;72.13;18944.09;5037451;28;20335;-57
2023/02/16 00:08:18;;;;;;;12.57;9.57;;;3.60;99.90;;;-141.84;71.94;18952.22;5052289;28;20761;-59
2023/02/16 00:13:43;;;;;;;12.10;9.23;;;3.60;99.90;;;-141.84;71.34;18968.47;5052035;28;20677;-62
2023/02/16 00:13:51;;;;;;;13.70;9.43;;;3.60;99.90;;;-141.84;71.47;18960.34;5052136;28;20255;-59
2023/02/16 00:16:23;;;;;;;13.13;9.80;;;3.60;99.90;;;-141.84;71.54;18938.00;5052226;28;20624;-59
2023/02/16 00:18:53;;;;;;;14.97;10.10;;;3.50;99.90;;;-141.84;71.11;18964.41;5052297;28;20188;-57
2023/02/16 00:21:22;;;;;;;13.70;10.20;;;3.50;99.90;;;-141.84;70.74;18950.19;5053128;28;20203;-59
2023/02/16 00:23:50;;;;;;;12.10;9.13;;;3.60;99.90;;;-141.84;71.36;18968.47;5051975;28;20228;-58
2023/02/16 00:26:23;;;;;;;13.00;9.60;;;3.50;99.90;;;-141.84;71.52;18940.03;5052377;28;20251;-58
2023/02/16 00:28:53;;;;;;;12.97;9.23;;;3.50;99.90;;;-141.84;70.41;18960.34;5051819;28;20628;-60
2023/02/16 00:31:26;;;;;;;12.47;9.70;;;3.60;99.90;;;-141.84;70.38;18958.31;5051805;28;20768;-59
2023/02/16 00:33:55;;;;;;;13.43;9.60;;;3.50;99.90;;;-141.84;71.18;18929.88;5051935;28;20199;-59
2023/02/16 00:36:24;;;;;;;12.77;9.37;;;3.50;99.90;;;-141.84;71.44;18956.28;5052495;28;20208;-59
2023/02/16 00:38:52;;;;;;;11.47;9.00;;;3.50;99.90;;;-141.84;71.25;18931.91;5051441;28;20322;-59
2023/02/16 00:44:17;;;;;;;14.57;9.77;;;3.40;99.90;;;-141.84;71.56;18929.88;5051942;28;20225;-60
2023/02/16 00:46:47;;;;;;;12.47;9.23;;;3.30;99.90;;;-141.84;71.88;18929.88;5051705;28;20234;-59
2023/02/16 00:49:19;;;;;;;12.83;9.20;;;3.30;99.90;;;-141.84;71.88;18935.97;5051378;28;20663;-60
2023/02/16 00:51:47;;;;;;;12.53;9.07;;;3.20;99.90;;;-141.84;72.11;18935.97;5051333;28;20302;-58
2023/02/16 00:54:16;;;;;;;13.97;9.67;;;3.20;99.90;;;-141.84;71.62;18956.28;5051888;28;20217;-59
2023/02/16 00:56:46;;;;;;;10.87;8.77;;;3.20;99.90;;;-141.84;70.94;18927.84;5051210;28;20727;-60
2023/02/16 00:59:20;;;;;;;11.97;9.17;;;3.20;99.90;;;-141.84;71.49;18940.03;5051300;28;20227;-59
2023/02/16 01:01:50;;;;;;;15.37;9.70;;;3.20;99.90;;;-141.84;71.27;18903.44;5051345;28;20234;-61
2023/02/16 01:04:23;;;;;;;11.63;9.07;;;3.20;99.90;;;-141.84;71.42;18972.53;5051265;28;20278;-61
2023/02/16 01:12:23;;;;;;;13.33;9.97;;;3.20;99.90;;;-141.84;71.30;18948.16;5051282;28;20213;-61
2023/02/16 01:14:55;;;;;;;13.10;10.07;;;3.20;99.90;;;-141.84;70.83;18954.25;5050463;28;20225;-61
2023/02/16 01:17:24;;;;;;;12.97;9.17;;;3.20;99.90;;;-141.84;71.14;18909.53;5050519;28;20720;-61
2023/02/16 01:19:54;;;;;;;13.93;10.33;;;3.20;99.90;;;-141.84;71.96;18948.16;5050633;28;20223;-61
2023/02/16 01:22:22;;;;;;;14.73;9.63;;;3.10;99.90;;;-141.84;72.19;18917.66;5050684;28;20760;-60
2023/02/16 01:24:50;;;;;;;12.47;10.27;;;3.10;99.90;;;-141.84;72.38;18913.59;5050969;28;20207;-61
2023/02/16 01:27:19;;;;;;;13.67;10.40;;;3.00;99.90;;;-141.84;72.38;18919.69;5051433;28;20205;-61
2023/02/16 01:29:47;;;;;;;13.60;10.10;;;3.00;99.90;;;-141.84;71.84;18891.25;5050401;28;20241;-61
2023/02/16 01:32:15;;;;;;;13.77;10.13;;;3.00;99.90;;;-141.84;71.64;18948.16;5050507;28;20445;-62
2023/02/16 01:34:43;;;;;;;15.57;9.60;;;3.00;99.90;;;-141.84;71.48;18950.19;5050385;28;20595;-61
2023/02/16 01:37:16;;;;;;;13.70;10.67;;;3.00;99.90;;;-141.84;71.67;18909.53;5050330;28;20221;-61
2023/02/16 01:39:44;;;;;;;15.73;10.23;;;3.00;99.90;;;-141.84;72.22;18921.75;5049905;28;20783;-61
2023/02/16 01:42:29;;;;;;;13.77;10.13;;;3.00;99.90;;;-141.84;72.68;18893.28;5051201;28;20200;-61
2023/02/16 01:45:01;;;;;;;13.30;9.93;;;2.90;99.90;;;-141.84;72.87;18901.41;5050070;28;20245;-61
2023/02/16 01:47:40;;;;;;;15.60;10.97;;;2.90;99.90;;;-141.84;73.56;18935.97;5050188;28;20237;-62
2023/02/16 01:50:18;;;;;;;14.80;10.93;;;2.80;99.90;;;-141.84;73.50;18903.44;5050173;28;20229;-62
2023/02/16 01:52:57;;;;;;;13.70;10.53;;;2.70;99.90;;;-141.84;72.86;18909.53;5050028;28;20608;-60
2023/02/16 01:55:30;;;;;;;15.93;10.83;;;2.70;99.90;;;-141.84;73.17;18929.88;5050071;28;20223;-61
2023/02/16 01:58:05;;;;;;;13.83;10.77;;;2.70;99.90;;;-141.84;73.79;18897.34;5050012;28;20233;-62
2023/02/16 02:01:34;;;;;;;13.00;9.67;;;2.70;99.90;;;-141.84;72.72;18893.28;5050089;28;20185;-61
2023/02/16 02:06:48;;;;;;;14.77;10.63;;;2.80;99.90;;;-141.84;73.10;18895.31;5050039;28;20221;-61
2023/02/16 02:09:25;;;;;;;15.33;10.80;;;2.80;99.90;;;-141.84;73.20;18921.75;5050447;28;20206;-61
2023/02/16 02:12:06;;;;;;;12.90;9.80;;;2.80;99.90;;;-141.84;73.53;18915.63;5049678;28;20247;-62
2023/02/16 02:14:39;;;;;;;14.17;10.63;;;2.70;99.90;;;-141.84;72.88;18929.88;5049582;28;20245;-62
2023/02/16 02:17:14;;;;;;;14.80;10.93;;;2.80;99.90;;;-141.84;72.46;18931.91;5049780;28;20241;-61
2023/02/16 02:19:54;;;;;;;15.47;10.93;;;2.80;99.90;;;-141.84;72.48;18919.69;5049738;28;20226;-63
2023/02/16 02:23:32;;;;;;;13.60;11.20;;;2.80;99.90;;;-141.84;72.54;18897.34;5049687;28;20215;-61
2023/02/16 02:27:06;;;;;;;14.83;11.10;;;2.80;99.90;;;-141.84;72.96;18919.69;5024823;28;20641;-61
2023/02/16 02:30:00;;;;;;;15.67;10.50;;;2.80;99.90;;;-141.84;73.18;18913.59;5049400;28;20700;-61
2023/02/16 02:32:49;;;;;;;13.83;10.33;;;2.70;99.90;;;-141.84;73.22;18895.31;5049498;28;20231;-63
2023/02/16 02:35:36;;;;;;;16.63;11.67;;;2.70;99.90;;;-141.84;73.96;18911.56;5049223;28;20225;-62
2023/02/16 02:38:15;;;;;;;14.20;11.20;;;2.70;99.90;;;-141.84;73.97;18899.38;5049205;28;20595;-62
2023/02/16 02:40:59;;;;;;;14.17;10.60;;;2.60;99.90;;;-141.84;74.31;18895.31;5049441;28;20221;-62
2023/02/16 02:43:38;;;;;;;14.80;10.23;;;2.60;99.90;;;-141.84;74.07;18909.53;5049528;28;20248;-62
2023/02/16 02:46:12;;;;;;;15.90;10.97;;;2.60;99.90;;;-141.84;74.20;18866.88;5049207;28;20248;-61
2023/02/16 02:48:41;;;;;;;14.53;10.87;;;2.60;99.90;;;-141.84;73.81;18881.09;5049539;28;20189;-61
2023/02/16 02:51:28;;;;;;;13.53;11.30;;;2.60;99.90;;;-141.84;73.74;18907.50;5049020;28;20208;-62
2023/02/16 03:02:35;;;;;;;15.40;10.80;;;2.60;99.90;;;-141.84;73.78;18895.31;5048858;28;20221;-62
2023/02/16 03:05:09;;;;;;;14.50;10.97;;;2.50;99.90;;;-141.84;72.85;18899.38;5048817;28;20727;-62
2023/02/16 03:07:48;;;;;;;13.17;10.33;;;2.60;99.90;;;-141.84;72.83;18891.25;5049084;28;20233;-64
2023/02/16 03:13:17;;;;;;;15.13;11.27;;;2.50;99.90;;;-141.84;73.06;18903.44;5048838;28;20238;-62
2023/02/16 03:15:49;;;;;;;15.87;10.93;;;2.50;99.90;;;-141.84;72.70;18897.34;5048583;28;20551;-62
2023/02/16 03:29:27;;;;;;;15.87;11.13;;;2.50;99.90;;;-141.84;73.51;18872.97;5048691;28;20229;-62
2023/02/16 03:31:58;;;;;;;14.47;10.93;;;2.40;99.90;;;-141.84;73.40;18885.16;5048510;28;20224;-62
2023/02/16 03:34:27;;;;;;;16.43;11.20;;;2.40;99.90;;;-141.84;73.77;18875.00;5048678;28;20295;-62
2023/02/16 03:37:00;;;;;;;15.87;11.50;;;2.40;99.90;;;-141.84;73.44;18879.06;5048622;28;20247;-61
2023/02/16 03:39:29;;;;;;;15.63;11.77;;;2.40;99.90;;;-141.84;73.42;18891.25;5049341;28;20201;-61
2023/02/16 03:41:58;;;;;;;16.23;11.73;;;2.40;99.90;;;-141.84;73.80;18893.28;5048870;28;20253;-61
2023/02/16 03:44:26;;;;;;;16.30;12.10;;;2.40;99.90;;;-141.84;73.22;18883.13;5048603;28;20595;-62
2023/02/16 03:46:54;;;;;;;14.43;11.10;;;2.40;99.90;;;-141.84;72.92;18883.13;5048384;28;20236;-61
2023/02/16 03:49:24;;;;;;;16.90;11.73;;;2.50;99.90;;;-141.84;72.88;18881.09;5048405;28;20717;-62
2023/02/16 03:51:52;;;;;;;16.13;11.20;;;2.50;99.90;;;-141.84;73.01;18931.91;5048504;28;20201;-61
2023/02/16 03:54:20;;;;;;;15.50;11.83;;;2.50;99.90;;;-141.84;73.12;18879.06;5048775;28;20705;-64
2023/02/16 03:56:48;;;;;;;15.93;11.80;;;2.50;99.90;;;-141.84;73.77;18870.94;5048320;28;20229;-61
2023/02/16 03:59:19;;;;;;;15.47;11.50;;;2.40;99.90;;;-141.84;74.16;18889.22;5048533;28;20251;-62
2023/02/16 04:01:47;;;;;;;21.43;11.60;;;2.40;99.90;;;-141.84;74.16;18846.56;5048950;28;20222;-62
2023/02/16 04:04:15;;;;;;;17.10;11.67;;;2.40;99.90;;;-141.84;73.80;18897.34;5052218;28;20225;-62
2023/02/16 04:06:45;;;;;;;15.77;11.73;;;2.40;99.90;;;-141.84;73.28;18893.28;5051709;28;20676;-60
2023/02/16 04:09:13;;;;;;;16.87;12.07;;;2.40;99.90;;;-141.84;73.50;18901.41;5052646;28;20187;-62
2023/02/16 04:14:27;;;;;;;16.80;12.57;;;2.40;99.90;;;-141.84;73.54;18881.09;5051959;28;20283;-61
2023/02/16 04:16:55;;;;;;;17.20;12.33;;;2.40;99.90;;;-141.84;73.60;18895.31;5051614;28;20237;-61
2023/02/16 04:19:23;;;;;;;17.27;12.83;;;2.40;99.90;;;-141.84;73.98;18870.94;5051686;28;20604;-61
2023/02/16 04:21:53;;;;;;;18.37;12.83;;;2.30;99.90;;;-141.84;74.20;18868.91;5051774;28;20731;-62
2023/02/16 04:24:21;;;;;;;21.50;13.20;;;2.30;99.90;;;-141.84;73.17;18862.81;5052186;28;20209;-63
2023/02/16 04:26:49;;;;;;;18.23;13.43;;;2.40;99.90;;;-141.84;73.62;18868.91;5051786;28;20224;-61
2023/02/16 04:29:18;;;;;;;20.40;13.43;;;2.40;99.90;;;-141.84;73.17;18887.19;5051805;28;20724;-62
2023/02/16 04:31:46;;;;;;;18.73;12.83;;;2.40;99.90;;;-141.84;73.60;18903.44;5051454;28;20321;-62
2023/02/16 04:34:14;;;;;;;18.80;13.40;;;2.40;99.90;;;-141.84;74.08;18868.91;5051390;28;20225;-61
2023/02/16 04:36:42;;;;;;;18.80;13.67;;;2.30;99.90;;;-141.84;73.76;18911.56;5051652;28;20201;-62
2023/02/16 04:39:12;;;;;;;20.47;14.47;;;2.30;99.90;;;-141.84;74.18;18899.38;5052140;28;20201;-61
2023/02/16 04:41:40;;;;;;;21.37;14.13;;;2.30;99.90;;;-141.84;74.55;18881.09;5051350;28;20229;-62
2023/02/16 04:44:08;;;;;;;18.90;13.93;;;2.20;99.90;;;-141.84;74.16;18901.41;5051627;28;20225;-62
2023/02/16 04:46:36;;;;;;;22.47;14.37;;;2.30;99.90;;;-141.84;75.01;18854.69;5051170;28;20229;-62
2023/02/16 04:49:04;;;;;;;21.77;15.37;;;2.20;99.90;;;-141.84;75.12;18828.28;5051522;28;20225;-62
2023/02/16 04:51:32;;;;;;;23.63;15.20;;;2.20;99.90;;;-141.84;74.75;18877.03;5051942;28;20230;-62
2023/02/16 04:54:01;;;;;;;21.53;14.80;;;2.20;99.90;;;-141.84;75.09;18856.72;5050853;28;20232;-62
2023/02/16 04:56:30;;;;;;;23.10;15.53;;;2.20;99.90;;;-141.84;75.86;18854.69;5051050;28;20316;-62
2023/02/16 04:58:58;;;;;;;20.80;14.30;;;2.10;99.90;;;-141.84;75.57;18854.69;5050842;28;20236;-61
2023/02/16 05:01:28;;;;;;;23.27;15.47;;;2.20;99.90;;;-141.84;75.10;18864.84;5051008;28;20228;-62
2023/02/16 05:03:57;;;;;;;22.60;14.60;;;2.20;99.90;;;-141.84;75.26;18832.34;5051256;28;20286;-62
2023/02/16 05:06:25;;;;;;;21.97;15.13;;;2.20;99.90;;;-141.84;74.73;18836.41;5041477;28;20573;-61
2023/02/16 05:08:53;;;;;;;20.03;14.33;;;2.20;99.90;;;-141.84;75.51;18832.34;5030958;28;20612;-62
2023/02/16 05:17:05;;;;;;;22.70;16.33;;;2.20;99.90;;;-141.84;76.50;18840.47;5030601;28;20612;-61
2023/02/16 05:19:33;;;;;;;24.30;16.17;;;2.10;99.90;;;-141.84;75.82;18852.66;5030921;28;20225;-65
2023/02/16 05:22:01;;;;;;;22.73;15.60;;;2.20;99.90;;;-141.84;75.03;18838.44;5031006;28;20232;-62
2023/02/16 05:24:30;;;;;;;19.60;14.60;;;2.20;99.90;;;-141.84;75.40;18826.25;5031562;28;20577;-62
2023/02/16 05:26:58;;;;;;;25.07;15.87;;;2.20;99.90;;;-141.84;75.82;18854.69;5030813;28;20236;-61
2023/02/16 05:29:27;;;;;;;23.60;15.10;;;2.20;99.90;;;-141.84;75.68;18842.50;5030658;28;20230;-62
2023/02/16 05:31:56;;;;;;;20.50;14.73;;;2.20;99.90;;;-141.84;75.69;18860.78;5030815;28;20230;-61
2023/02/16 05:34:25;;;;;;;22.03;15.10;;;2.20;99.90;;;-141.84;75.35;18852.66;5030379;28;20230;-62
2023/02/16 05:36:54;;;;;;;22.40;15.53;;;2.20;99.90;;;-141.84;74.73;18875.00;5037432;28;20296;-62
2023/02/16 05:39:22;;;;;;;22.13;15.40;;;2.30;99.90;;;-141.84;75.29;18879.06;5034083;28;20208;-62
2023/02/16 05:41:51;;;;;;;25.33;15.77;;;2.20;99.90;;;-141.84;75.31;18850.63;5030492;28;20234;-62
2023/02/16 05:44:19;;;;;;;24.07;16.90;;;2.20;99.90;;;-141.84;75.42;18836.41;5030353;28;20226;-63
2023/02/16 05:46:49;;;;;;;24.67;15.77;;;2.20;99.90;;;-141.84;75.77;18862.81;5030217;28;20240;-62
2023/02/16 05:49:17;;;;;;;25.07;16.43;;;2.20;99.90;;;-141.84;75.91;18854.69;5030353;28;20227;-63
2023/02/16 05:51:46;;;;;;;25.67;16.73;;;2.20;99.90;;;-141.84;76.74;18844.53;5030231;28;20202;-62
2023/02/16 05:54:16;;;;;;;25.23;16.73;;;2.20;99.90;;;-141.84;76.43;18854.69;5030766;28;20222;-61
2023/02/16 05:56:46;;;;;;;22.57;15.30;;;2.20;99.90;;;-141.84;75.84;18852.66;5030116;28;20222;-62
2023/02/16 05:59:15;;;;;;;25.70;15.87;;;2.20;99.90;;;-141.84;75.83;18860.78;5030147;28;20222;-64
2023/02/16 06:01:45;;;;;;;22.33;15.63;;;2.20;99.90;;;-141.84;75.96;18832.34;5030233;28;20219;-62
2023/02/16 06:04:23;;;;;;;22.67;15.60;;;2.20;99.90;;;-141.84;75.89;18830.31;5030211;28;20302;-61
2023/02/16 06:06:51;;;;;;;23.53;16.23;;;2.20;99.90;;;-141.84;75.96;18883.13;5042701;28;20681;-60
2023/02/16 06:09:20;;;;;;;23.23;15.73;;;2.20;99.90;;;-141.84;76.39;18868.91;5050467;28;20205;-59
2023/02/16 06:11:48;;;;;;;23.63;16.53;;;2.10;99.90;;;-141.84;76.10;18828.28;5049664;28;20621;-60
2023/02/16 06:14:19;;;;;;;22.20;15.70;;;2.10;99.90;;;-141.84;76.66;18856.72;5049612;28;20329;-59
2023/02/16 06:16:50;;;;;;;23.53;15.37;;;2.10;99.90;;;-141.84;76.14;18822.19;5049562;28;20233;-62
2023/02/16 06:19:20;;;;;;;22.60;15.37;;;2.10;99.90;;;-141.84;76.75;18842.50;5049669;28;20510;-57
2023/02/16 06:21:48;;;;;;;21.43;16.03;;;2.10;99.90;;;-141.84;76.57;18872.97;5049596;28;20213;-59
2023/02/16 06:24:17;;;;;;;26.70;16.13;;;2.10;99.90;;;-141.84;77.07;18850.63;5050051;28;20215;-61
2023/02/16 06:26:45;;;;;;;23.97;15.87;;;2.00;99.90;;;-141.84;77.31;18832.34;5049431;28;20229;-59
2023/02/16 06:29:13;;;;;;;22.33;15.43;;;2.00;99.90;;;-141.84;77.58;18789.66;5049568;28;20229;-57
2023/02/16 06:31:41;;;;;;;24.60;16.63;;;2.00;99.90;;;-141.84;78.15;18828.28;5049551;28;20631;-55
2023/02/16 06:34:09;;;;;;;25.00;16.17;;;1.90;99.90;;;-141.84;77.80;18822.19;5049492;28;20302;-57
2023/02/16 06:36:39;;;;;;;24.40;16.40;;;1.90;99.90;;;-141.84;77.58;18824.22;5049425;28;20201;-58
2023/02/16 06:39:09;;;;;;;23.87;16.47;;;1.90;99.90;;;-141.84;77.32;18820.16;5050070;28;20193;-57
2023/02/16 06:41:39;;;;;;;24.43;16.37;;;1.90;99.90;;;-141.84;76.28;18842.50;5049442;28;20222;-56
2023/02/16 06:44:11;;;;;;;27.83;19.73;;;2.00;99.90;;;-141.84;76.88;18809.97;5049136;28;20732;-59
2023/02/16 06:46:39;;;;;;;24.23;15.87;;;2.10;99.90;;;-141.84;77.44;18838.44;5049246;28;20244;-56
2023/02/16 06:49:10;;;;;;;23.67;16.83;;;2.00;99.90;;;-141.84;77.50;18836.41;5049087;28;20224;-56
2023/02/16 06:51:40;;;;;;;23.07;16.03;;;2.00;99.90;;;-141.84;77.47;18842.50;5049244;28;20645;-59
2023/02/16 06:54:08;;;;;;;25.63;16.63;;;2.00;99.90;;;-141.84;76.59;18814.03;5049564;28;20223;-56
2023/02/16 06:56:37;;;;;;;24.83;16.87;;;2.10;99.90;;;-141.84;75.48;18846.56;5048924;28;20724;-58
2023/02/16 06:59:05;;;;;;;24.23;16.70;;;2.20;99.90;;;-141.84;76.47;18887.19;5049007;28;20228;-57
2023/02/16 07:01:34;;;;;;;25.00;16.00;;;2.20;99.90;;;-141.84;76.06;18864.84;5049255;28;20291;-58
2023/02/16 07:04:02;;;;;;;25.67;16.87;;;2.30;99.90;;;-141.84;75.94;18858.75;5048963;28;20221;-58
2023/02/16 07:06:30;;;;;;;26.37;16.93;;;2.30;99.90;;;-141.84;76.46;18850.63;5049450;28;20205;-57
2023/02/16 07:09:01;;;;;;;25.83;17.33;;;2.30;99.90;;;-141.84;76.37;18818.09;5048788;28;20229;-60
2023/02/16 07:11:29;;;;;;;27.40;17.43;;;2.40;99.90;;;-141.84;76.73;18850.63;5049006;28;20236;-56
2023/02/16 07:13:57;;;;;;;26.97;17.20;;;2.40;99.90;;;-141.84;76.04;18844.53;5048734;28;20225;-59
2023/02/16 07:16:25;;;;;;;25.30;15.93;;;2.50;99.90;;;-141.84;75.69;18854.69;5048438;28;20608;-56
2023/02/16 07:18:53;;;;;;;25.20;17.47;;;2.50;99.90;;;-141.84;75.77;18887.19;5048544;28;20626;-58
2023/02/16 07:21:21;;;;;;;23.70;16.13;;;2.50;99.90;;;-141.84;75.80;18854.69;5049931;28;20210;-60
2023/02/16 07:23:50;;;;;;;24.23;16.20;;;2.50;99.90;;;-141.84;75.74;18875.00;5048854;28;20717;-55
2023/02/16 07:26:19;;;;;;;26.03;16.13;;;2.60;99.90;;;-141.84;74.31;18879.06;5048802;28;20581;-57
2023/02/16 07:28:47;;;;;;;27.13;17.00;;;2.70;99.90;;;-141.84;73.83;18852.66;5048717;28;20836;-58
2023/02/16 07:31:17;;;;;;;23.63;16.77;;;2.80;99.90;;;-141.84;74.12;18860.78;5048532;28;20225;-57
2023/02/16 07:33:46;;;;;;;26.60;17.43;;;2.80;99.90;;;-141.84;74.18;18893.28;5048805;28;20202;-56
2023/02/16 07:36:14;;;;;;;22.40;15.67;;;2.80;99.90;;;-141.84;73.78;18858.75;5049078;28;20221;-57
2023/02/16 07:38:43;;;;;;;24.90;16.80;;;2.80;99.90;;;-141.84;74.35;18917.66;5052398;28;20338;-58
2023/02/16 07:41:11;;;;;;;24.90;16.57;;;2.80;99.90;;;-141.84;74.75;18887.19;5052660;28;20229;-56
2023/02/16 07:43:42;;;;;;;26.90;17.30;;;2.80;99.90;;;-141.84;74.26;18903.44;5052768;28;20224;-54
2023/02/16 07:46:10;;;;;;;29.30;17.70;;;2.80;99.90;;;-141.84;74.35;18903.44;5052325;28;20232;-56
2023/02/16 07:48:39;;;;;;;23.27;16.80;;;2.80;99.90;;;-141.84;73.62;18895.31;5052962;28;20198;-57
2023/02/16 07:51:07;;;;;;;26.20;16.47;;;2.90;99.90;;;-141.84;73.50;18881.09;5052902;28;20209;-56
2023/02/16 07:53:35;;;;;;;22.60;15.90;;;2.90;99.90;;;-141.84;74.11;18883.13;5052327;28;20307;-56
2023/02/16 07:56:04;;;;;;;22.50;16.43;;;2.90;99.90;;;-141.84;74.01;18877.03;5052270;28;20226;-55
2023/02/16 07:58:32;;;;;;;23.50;16.07;;;2.90;99.90;;;-141.84;74.08;18913.59;5052325;28;20235;-56
2023/02/16 08:01:10;;;;;;;28.07;18.13;;;2.90;99.90;;;-141.84;74.29;18879.06;5052129;28;20231;-56
2023/02/16 08:03:40;;;;;;;29.50;18.57;;;2.90;99.90;;;-141.84;73.48;18891.25;5052921;28;20182;-58
2023/02/16 08:06:09;;;;;;;27.17;18.53;;;3.10;99.90;;;-141.84;73.38;18901.41;5052661;28;20214;-55
2023/02/16 08:08:38;;;;;;;26.30;18.13;;;3.10;99.90;;;-141.84;72.22;18921.75;5052074;28;20224;-57
2023/02/16 08:11:11;;;;;;;24.87;17.93;;;3.30;99.90;;;-141.84;72.06;18917.66;5051986;28;20484;-56
2023/02/16 08:13:40;;;;;;;29.03;18.50;;;3.40;99.90;;;-141.84;71.63;18899.38;5051978;28;20717;-57
2023/02/16 08:16:12;;;;;;;24.60;16.57;;;3.50;99.90;;;-141.84;71.68;18976.59;5051766;28;20239;-58
2023/02/16 08:18:41;;;;;;;26.17;16.93;;;3.60;99.90;;;-141.84;70.69;18935.97;5051977;28;20189;-58
2023/02/16 08:21:13;;;;;;;25.83;16.80;;;3.80;99.90;;;-141.84;69.80;18972.53;5052440;28;20209;-57
2023/02/16 08:23:46;;;;;;;24.43;16.03;;;3.90;99.90;;;-141.84;69.48;19037.56;5052046;28;20225;-57
2023/02/16 08:26:17;;;;;;;23.70;16.37;;;4.00;99.90;;;-141.84;69.02;18984.72;5051821;28;20314;-58
2023/02/16 08:28:46;;;;;;;23.57;16.13;;;4.10;99.90;;;-141.84;68.54;19005.03;5052054;28;20229;-56
2023/02/16 08:31:18;;;;;;;24.17;16.20;;;4.30;99.90;;;-141.84;68.29;18990.81;5051594;28;20724;-56
2023/02/16 08:33:47;;;;;;;24.03;16.13;;;4.40;99.90;;;-141.84;66.97;19035.53;5051968;28;20698;-57
2023/02/16 08:36:20;;;;;;;23.40;16.40;;;4.50;99.90;;;-141.84;67.34;19037.56;5052314;28;20647;-58
2023/02/16 08:38:49;;;;;;;23.90;16.93;;;4.60;99.90;;;-141.84;67.43;19057.88;5051587;28;20713;-58
2023/02/16 08:41:18;;;;;;;24.50;16.90;;;4.70;99.90;;;-141.84;67.65;19041.63;5051322;28;20224;-54
2023/02/16 08:43:47;;;;;;;22.50;16.70;;;4.70;99.90;;;-141.84;66.75;19055.84;5051452;28;20250;-54
2023/02/16 08:46:17;;;;;;;23.00;16.03;;;4.80;99.90;;;-141.84;66.33;19057.88;5051563;28;20225;-56
2023/02/16 08:48:46;;;;;;;21.77;15.17;;;5.00;99.90;;;-141.84;65.90;19063.97;5051273;28;20177;-57
2023/02/16 08:51:19;;;;;;;27.80;16.57;;;5.10;99.90;;;-141.84;66.04;19045.69;5051847;28;20347;-58
2023/02/16 08:53:51;;;;;;;22.87;15.83;;;5.10;99.90;;;-141.84;65.35;19094.44;5051373;28;20795;-56
2023/02/16 08:56:19;;;;;;;24.53;15.87;;;5.20;99.90;;;-141.84;65.79;19078.19;5051132;28;20700;-57
2023/02/16 08:58:47;;;;;;;23.27;16.13;;;5.20;99.90;;;-141.84;65.13;19139.16;5051304;28;20460;-55
2023/02/16 09:01:18;;;;;;;23.90;17.40;;;5.40;99.90;;;-141.84;65.36;19086.31;5051493;28;20221;-60
2023/02/16 09:03:47;;;;;;;22.93;16.80;;;5.40;99.90;;;-141.84;64.83;19141.19;5050964;28;20286;-57
2023/02/16 09:06:20;;;;;;;22.87;17.23;;;5.50;99.90;;;-141.84;64.53;19155.41;5051216;28;20205;-55
2023/02/16 09:08:52;;;;;;;26.23;16.83;;;5.60;99.90;;;-141.84;64.12;19159.47;5051181;28;20230;-55
2023/02/16 09:11:21;;;;;;;29.50;17.00;;;5.70;99.90;;;-141.84;63.70;19147.28;5051100;28;20236;-56
2023/02/16 09:13:50;;;;;;;25.50;17.17;;;5.80;99.90;;;-141.84;64.06;19173.69;5051022;28;20226;-57
2023/02/16 09:16:23;;;;;;;25.47;16.40;;;5.90;99.90;;;-141.84;63.57;19141.19;5050643;28;20243;-58
2023/02/16 09:18:52;;;;;;;26.83;16.90;;;6.00;99.90;;;-141.84;63.19;19137.13;5051138;28;20198;-58
2023/02/16 09:21:25;;;;;;;24.40;16.20;;;6.10;99.90;;;-141.84;63.24;19145.25;5051268;28;20225;-56
2023/02/16 09:23:56;;;;;;;24.00;16.70;;;6.20;99.90;;;-141.84;62.39;19212.31;5050687;28;20225;-60
2023/02/16 09:26:28;;;;;;;25.30;16.50;;;6.30;99.90;;;-141.84;62.52;19218.41;5050537;28;20719;-58
2023/02/16 09:28:56;;;;;;;22.73;16.27;;;6.30;99.90;;;-141.84;62.13;19244.81;5050763;28;20251;-55
2023/02/16 09:31:30;;;;;;;24.97;16.87;;;6.40;99.90;;;-141.84;62.25;19232.63;5050430;28;20227;-57
2023/02/16 09:34:02;;;;;;;22.10;16.43;;;6.60;99.90;;;-141.84;61.71;19218.41;5050904;28;20229;-55
2023/02/16 09:36:31;;;;;;;27.27;16.47;;;6.60;99.90;;;-141.84;61.45;19232.63;5050606;28;20217;-57
2023/02/16 09:39:01;;;;;;;26.87;17.40;;;6.70;99.90;;;-141.84;61.58;19238.72;5050840;28;20319;-56
2023/02/16 09:41:54;;;;;;;24.47;16.67;;;6.80;99.90;;;-141.84;61.13;19271.25;5050318;28;20239;-58
2023/02/16 09:44:34;;;;;;;26.13;17.03;;;6.90;99.90;;;-141.84;60.61;19261.06;5050512;28;20229;-59
2023/02/16 09:47:15;;;;;;;25.00;16.70;;;7.00;99.90;;;-141.84;61.29;19283.44;5050109;28;20262;-57
2023/02/16 09:49:44;;;;;;;26.17;16.67;;;7.00;99.90;;;-141.84;59.90;19289.53;5050661;28;20225;-59
2023/02/16 09:52:25;;;;;;;26.50;17.23;;;7.20;99.90;;;-141.84;60.44;19285.47;5049862;28;20724;-57
2023/02/16 09:54:57;;;;;;;24.60;17.27;;;7.20;99.90;;;-141.84;60.85;19275.31;5050324;28;20193;-60
2023/02/16 09:57:44;;;;;;;25.30;17.07;;;7.20;99.90;;;-141.84;60.22;19305.78;5050440;28;20216;-61
2023/02/16 10:00:29;;;;;;;24.93;17.33;;;7.40;99.90;;;-141.84;59.92;19309.84;5049633;28;20236;-61
2023/02/16 10:03:17;;;;;;;28.30;19.37;;;7.50;99.90;;;-141.84;60.40;19317.97;5049765;28;20286;-62
2023/02/16 10:05:56;;;;;;;24.50;18.30;;;7.50;99.90;;;-141.84;59.75;19311.88;5049834;28;20227;-62
2023/02/16 10:08:30;;;;;;;24.77;18.43;;;7.60;99.90;;;-141.84;59.94;19293.59;5050014;28;20630;-58
2023/02/16 10:11:36;;;;;;;27.50;18.67;;;7.60;99.90;;;-141.84;59.99;19354.56;5049953;28;20237;-57
2023/02/16 10:14:07;;;;;;;26.83;18.60;;;7.70;99.90;;;-141.84;59.43;19352.53;5049466;28;20496;-57
2023/02/16 10:16:44;;;;;;;29.40;19.63;;;7.80;99.90;;;-141.84;58.92;19366.75;5049631;28;20263;-56
2023/02/16 10:19:24;;;;;;;25.83;18.10;;;7.90;99.90;;;-141.84;58.80;19336.25;5049641;28;20707;-56
2023/02/16 10:21:58;;;;;;;28.80;18.30;;;8.00;99.90;;;-141.84;58.93;19393.16;5049713;28;20178;-56
2023/02/16 10:24:31;;;;;;;26.57;18.10;;;8.00;99.90;;;-141.84;59.50;19389.09;5050335;28;20576;-56
2023/02/16 10:27:07;;;;;;;24.87;17.60;;;8.00;99.90;;;-141.84;58.80;19362.69;5049445;28;20236;-58
2023/02/16 10:29:35;;;;;;;26.20;18.43;;;8.10;99.90;;;-141.84;58.94;19364.72;5049517;28;20225;-61
2023/02/16 10:32:16;;;;;;;23.97;18.17;;;8.10;99.90;;;-141.84;58.72;19387.06;5049206;28;20743;-58
2023/02/16 10:34:51;;;;;;;25.37;18.23;;;8.20;99.90;;;-141.84;58.67;19443.97;5049577;28;20221;-58
2023/02/16 10:37:41;;;;;;;26.73;18.43;;;8.30;99.90;;;-141.84;58.48;19395.19;5049337;28;20224;-57
2023/02/16 10:40:27;;;;;;;25.23;18.33;;;8.30;99.90;;;-141.84;58.85;19417.56;5049980;28;20233;-58
2023/02/16 10:43:06;;;;;;;25.13;18.23;;;8.40;99.90;;;-141.84;58.88;19387.06;5049571;28;20182;-60
2023/02/16 10:45:46;;;;;;;25.30;18.93;;;8.40;99.90;;;-141.84;58.34;19429.75;5049590;28;20242;-55
2023/02/16 10:48:20;;;;;;;22.87;17.90;;;8.60;99.90;;;-141.84;57.90;19456.16;5049618;28;20205;-59
2023/02/16 10:51:00;;;;;;;26.33;18.53;;;8.70;99.90;;;-141.84;57.00;19468.34;5049048;28;20633;-58
2023/02/16 10:53:39;;;;;;;23.00;18.20;;;8.80;99.90;;;-141.84;56.62;19488.69;5048903;28;20305;-59
2023/02/16 10:56:53;;;;;;;23.00;17.80;;;8.80;99.90;;;-141.84;57.81;19431.78;5049497;28;20237;-57
2023/02/16 10:59:24;;;;;;;23.47;17.77;;;8.70;99.90;;;-141.84;57.90;19470.38;5006749;28;20230;-56
2023/02/16 11:01:56;;;;;;;28.93;18.57;;;8.70;99.90;;;-141.84;57.92;19476.47;5006706;28;20774;-58
2023/02/16 11:04:40;;;;;;;25.13;18.40;;;8.70;99.90;;;-141.84;57.90;19488.69;5031831;28;20233;-57